This is the latest recevied weather packets stored in our database for station/object KJ6APE. If no packets are shown the sender has not sent any weather packets the latest 10 day(s).
| Time | Temp. | Humidity | Pressure | Rain* | Wind** | Luminosity | Snow |
|---|---|---|---|---|---|---|---|
| 1777677016 | 24.44° C | 48% | 1012.1 hPa | 0 mm | - | 658 W/m² | - |
| 1777676714 | 24.44° C | 49% | 1012.3 hPa | 0 mm | - | 664 W/m² | - |
| 1777676411 | 25° C | 46% | 1012.2 hPa | 0 mm | - | 589 W/m² | - |
| 1777676109 | 24.44° C | 47% | 1012.2 hPa | 0 mm | - | 602 W/m² | - |
| 1777675804 | 24.44° C | 47% | 1012.6 hPa | 0 mm | - | 619 W/m² | - |
| 1777675502 | 24.44° C | 46% | 1012.5 hPa | 0 mm | - | 609 W/m² | - |
| 1777675199 | 23.89° C | 49% | 1012.7 hPa | 0 mm | - | 712 W/m² | - |
| 1777674895 | 23.89° C | 48% | 1013 hPa | 0 mm | - | 754 W/m² | - |
| 1777674591 | 23.89° C | 49% | 1012.7 hPa | 0 mm | - | 744 W/m² | - |
| 1777674289 | 23.33° C | 50% | 1013 hPa | 0 mm | - | 834 W/m² | - |
| 1777673985 | 23.89° C | 49% | 1013.1 hPa | 0 mm | - | 715 W/m² | - |
| 1777673682 | 23.89° C | 48% | 1013.2 hPa | 0 mm | - | 574 W/m² | - |
| 1777673380 | 23.89° C | 50% | 1013.4 hPa | 0 mm | - | 549 W/m² | - |
| 1777673077 | 23.33° C | 50% | 1013.3 hPa | 0 mm | - | 577 W/m² | - |
| 1777672772 | 23.89° C | 48% | 1013.3 hPa | 0 mm | - | 601 W/m² | - |
| 1777672470 | 23.89° C | 48% | 1013.4 hPa | 0 mm | - | 578 W/m² | - |
| 1777672165 | 23.89° C | 50% | 1013.4 hPa | 0 mm | - | 646 W/m² | - |
| 1777671861 | 23.89° C | 50% | 1013.5 hPa | 0 mm | - | 713 W/m² | - |
| 1777671556 | 23.89° C | 48% | 1013.6 hPa | 0 mm | - | 853 W/m² | - |
| 1777671254 | 23.89° C | 49% | 1013.5 hPa | 0 mm | - | 820 W/m² | - |
| 1777670949 | 23.89° C | 51% | 1013.5 hPa | 0 mm | - | 781 W/m² | - |
| 1777670646 | 23.89° C | 49% | 1013.8 hPa | 0 mm | - | 771 W/m² | - |
| 1777670343 | 23.33° C | 52% | 1013.8 hPa | 0 mm | - | 765 W/m² | - |
| 1777670040 | 23.89° C | 50% | 1013.8 hPa | 0 mm | - | 829 W/m² | - |
| 1777669738 | 23.89° C | 51% | 1013.5 hPa | 0 mm | - | 857 W/m² | - |
* Rain latest hour (hover to see other rain measurements)
** Current wind speed in m/s (hover to see current wind gust speed)